Terminal Aerodrome Forecast
Issued by NWS

Home | Current Version | Previous Version | Graphics & Text | Print | Product List | Glossary On
Versions: 1 2 3 4 5 6 7 8 9 10 11 12 13 14 15 16
000
FTUS43 KGRB 191135
TAFRHI
TAF
KRHI 191135Z 1912/2012 VRB02KT P6SM SCT005
      TEMPO 1912/1913 2SM BR
     FM191500 30004KT P6SM SKC
     FM192000 23005KT P6SM SCT100
     FM200400 17004KT P6SM VCSH SCT040 BKN090
      TEMPO 2005/2009 4SM -TSRA BR BKN025CB
     FM201000 17004KT 4SM BR BKN006=

USA.gov is the U.S. government's official web portal to all federal, state and local government web resources and services.